createdAt,value
2022-08-19T00:01:28.837Z,98380.22
2022-08-19T00:04:03.528Z,98371.25
2022-08-19T00:06:30.387Z,98361.44
2022-08-19T00:08:58.264Z,98370.63
2022-08-19T00:11:26.508Z,98356.22
2022-08-19T00:13:53.932Z,98345.63
2022-08-19T00:16:26.264Z,98358.13
2022-08-19T00:18:56.544Z,98363.78
2022-08-19T00:21:25.583Z,98371.50
2022-08-19T00:23:52.691Z,98371.44
2022-08-19T00:26:20.395Z,98385.22
2022-08-19T00:28:48.195Z,98392.97
2022-08-19T00:31:14.990Z,98376.69
2022-08-19T00:33:41.839Z,98392.53
2022-08-19T00:36:10.519Z,98406.97
2022-08-19T00:38:42.021Z,98411.16
2022-08-19T00:41:09.875Z,98418.03
2022-08-19T00:43:36.991Z,98413.63
2022-08-19T00:46:05.845Z,98406.13
2022-08-19T00:48:34.680Z,98417.63
2022-08-19T00:51:02.978Z,98416.78
2022-08-19T00:53:35.410Z,98422.19
2022-08-19T00:56:04.322Z,98437.22
2022-08-19T00:58:34.502Z,98435.13
2022-08-19T01:01:01.977Z,98413.03
2022-08-19T01:03:29.163Z,98445.34
2022-08-19T01:06:20.062Z,98458.91
2022-08-19T01:08:50.058Z,98434.09
2022-08-19T01:11:17.894Z,98457.69
2022-08-19T01:13:49.854Z,98458.94
2022-08-19T01:16:20.463Z,98438.25
2022-08-19T01:18:47.981Z,98456.44
2022-08-19T01:21:25.824Z,98449.75
2022-08-19T01:23:52.659Z,98457.88
2022-08-19T01:26:23.761Z,98469.38
2022-08-19T01:28:54.519Z,98474.78
2022-08-19T01:31:32.510Z,98447.63
2022-08-19T01:33:59.648Z,98457.66
2022-08-19T01:36:31.969Z,98468.09
2022-08-19T01:39:00.532Z,98438.44
2022-08-19T01:41:27.567Z,98452.03
2022-08-19T01:44:09.865Z,98448.66
2022-08-19T01:46:43.590Z,98453.69
2022-08-19T01:49:10.947Z,98473.94
2022-08-19T01:51:38.544Z,98482.28
2022-08-19T01:54:08.160Z,98478.31
2022-08-19T01:56:35.001Z,98464.94
2022-08-19T01:59:05.725Z,98481.66
2022-08-19T02:01:33.725Z,98488.56
2022-08-19T02:04:01.824Z,98469.97
2022-08-19T02:06:29.508Z,98475.59
2022-08-19T02:08:57.568Z,98460.34
2022-08-19T02:11:32.748Z,98447.63
2022-08-19T02:14:03.220Z,98446.16
2022-08-19T02:16:31.420Z,98447.63
2022-08-19T02:19:01.689Z,98416.09
2022-08-19T02:21:30.077Z,98414.22
2022-08-19T02:23:57.580Z,98403.78
2022-08-19T02:26:24.605Z,98391.63
2022-08-19T02:28:51.501Z,98397.28
2022-08-19T02:31:22.807Z,98391.03
2022-08-19T02:33:53.439Z,98388.09
2022-08-19T02:36:24.296Z,98382.44
2022-08-19T02:38:54.825Z,98398.72
2022-08-19T02:41:32.141Z,98405.59
2022-08-19T02:44:29.050Z,98404.34
2022-08-19T02:46:51.726Z,98403.13
2022-08-19T02:49:19.540Z,98401.88
2022-08-19T02:51:47.719Z,98410.16
2022-08-19T02:54:15.576Z,98410.34
2022-08-19T02:56:45.119Z,98414.53
2022-08-19T02:59:12.894Z,98418.06
2022-08-19T03:01:43.020Z,98427.91
2022-08-19T03:04:13.031Z,98425.81
2022-08-19T03:06:40.721Z,98429.78
2022-08-19T03:09:08.151Z,98433.97
2022-08-19T03:11:35.020Z,98409.56
2022-08-19T03:14:03.356Z,98410.13
2022-08-19T03:16:33.182Z,98406.44
2022-08-19T03:19:01.803Z,98415.00
2022-08-19T03:21:32.241Z,98406.84
2022-08-19T03:24:01.392Z,98410.41
2022-08-19T03:26:28.288Z,98397.69
2022-08-19T03:28:57.997Z,98412.31
2022-08-19T03:31:44.531Z,98410.66
2022-08-19T03:34:18.850Z,98425.91
2022-08-19T03:36:47.464Z,98438.41
2022-08-19T03:39:14.426Z,98422.13
2022-08-19T03:41:44.367Z,98429.41
2022-08-19T03:44:16.985Z,98428.38
2022-08-19T03:46:47.042Z,98419.81
2022-08-19T03:49:14.766Z,98426.72
2022-08-19T03:51:42.950Z,98426.25
2022-08-19T03:54:10.367Z,98420.59
2022-08-19T03:56:39.616Z,98408.28
2022-08-19T03:59:09.077Z,98439.56
2022-08-19T04:04:11.511Z,98437.69
2022-08-19T04:06:40.143Z,98457.09
2022-08-19T04:09:09.994Z,98462.69
2022-08-19T04:11:45.086Z,98460.59
2022-08-19T04:14:21.566Z,98471.41
2022-08-19T04:16:50.075Z,98472.03
2022-08-19T04:19:18.659Z,98475.38
2022-08-19T04:21:54.207Z,98422.19
2022-08-19T04:24:22.096Z,98476.81
2022-08-19T04:26:49.797Z,98477.81
2022-08-19T04:29:26.150Z,98486.19
2022-08-19T04:31:55.622Z,98496.63
2022-08-19T04:34:25.522Z,98489.09
2022-08-19T04:36:54.330Z,98498.28
2022-08-19T04:39:23.872Z,98506.84
2022-08-19T04:42:09.966Z,98518.97
2022-08-19T04:44:39.891Z,98520.66
2022-08-19T04:47:14.502Z,98518.44
2022-08-19T04:49:41.387Z,98527.44
2022-08-19T04:52:09.555Z,98583.22
2022-08-19T04:54:38.240Z,98594.88
2022-08-19T04:57:11.407Z,98628.47
2022-08-19T04:59:40.295Z,98661.97
2022-08-19T05:02:10.725Z,98684.53
2022-08-19T05:04:40.270Z,98720.16
2022-08-19T05:07:08.139Z,98751.78
2022-08-19T05:09:57.725Z,98734.63
2022-08-19T05:12:22.554Z,98711.84
2022-08-19T05:14:57.969Z,98607.69
2022-08-19T05:17:27.997Z,98656.53
2022-08-19T05:20:14.771Z,98619.09
2022-08-19T05:22:42.676Z,98612.97
2022-08-19T05:25:19.442Z,98619.69
2022-08-19T05:27:46.444Z,98560.16
2022-08-19T05:30:13.455Z,98574.28
2022-08-19T05:32:40.791Z,98517.31
2022-08-19T05:35:08.239Z,98547.31
2022-08-19T05:37:35.030Z,98539.88
2022-08-19T05:40:02.489Z,98567.03
2022-08-19T05:42:29.392Z,98534.69
2022-08-19T05:44:57.099Z,98540.31
2022-08-19T05:47:24.214Z,98577.00
2022-08-19T05:49:51.935Z,98550.31
2022-08-19T05:52:19.698Z,98581.44
2022-08-19T05:54:55.840Z,98565.91
2022-08-19T05:57:23.936Z,98547.91
2022-08-19T05:59:57.603Z,98551.22
2022-08-19T06:02:26.890Z,98552.75
2022-08-19T06:04:53.767Z,98519.78
2022-08-19T06:07:20.689Z,98543.75
2022-08-19T06:09:59.940Z,98535.13
2022-08-19T06:12:35.257Z,98535.09
2022-08-19T06:15:11.859Z,98540.91
2022-08-19T06:17:39.193Z,98542.66
2022-08-19T06:20:13.174Z,98543.94
2022-08-19T06:22:45.588Z,98536.44
2022-08-19T06:25:14.008Z,98529.94
2022-08-19T06:28:11.633Z,98475.69
2022-08-19T06:30:28.516Z,98522.75
2022-08-19T06:32:55.288Z,98542.97
2022-08-19T06:35:22.152Z,98523.78
2022-08-19T06:37:48.991Z,98535.72
2022-08-19T06:40:15.820Z,98546.34
2022-08-19T06:42:53.017Z,98551.00
2022-08-19T06:45:24.509Z,98548.78
2022-08-19T06:47:55.400Z,98557.34
2022-08-19T06:50:23.071Z,98547.75
2022-08-19T06:52:51.863Z,98557.47
2022-08-19T06:55:20.169Z,98558.44
2022-08-19T06:57:47.679Z,98557.78
2022-08-19T07:00:14.947Z,98556.56
2022-08-19T07:02:48.085Z,98577.81
2022-08-19T07:05:23.214Z,98580.63
2022-08-19T07:07:51.162Z,98589.94
2022-08-19T07:10:18.540Z,98587.44
2022-08-19T07:12:45.380Z,98595.63
2022-08-19T07:15:12.809Z,98572.88
2022-08-19T07:17:41.837Z,98568.13
2022-08-19T07:20:10.079Z,98577.91
2022-08-19T07:22:38.862Z,98572.94
2022-08-19T07:25:07.834Z,98559.75
2022-08-19T07:27:35.624Z,98535.69
2022-08-19T07:30:02.548Z,98532.41
2022-08-19T07:32:29.463Z,98517.31
2022-08-19T07:34:57.092Z,98530.97
2022-08-19T07:37:32.367Z,98532.94
2022-08-19T07:40:00.513Z,98538.66
2022-08-19T07:42:27.794Z,98531.25
2022-08-19T07:44:54.580Z,98546.91
2022-08-19T07:47:49.489Z,98524.75
2022-08-19T07:50:12.670Z,98548.75
2022-08-19T07:52:40.677Z,98557.66
2022-08-19T07:55:11.478Z,98567.88
2022-08-19T07:57:57.027Z,98579.53
2022-08-19T08:00:24.737Z,98564.78
2022-08-19T08:02:55.497Z,98581.69
2022-08-19T08:05:43.944Z,98572.88
2022-08-19T08:08:30.649Z,98573.44
2022-08-19T08:10:57.650Z,98581.19
2022-08-19T08:13:26.418Z,98586.22
2022-08-19T08:15:55.978Z,98546.03
2022-08-19T08:18:27.377Z,98569.59
2022-08-19T08:20:56.081Z,98533.44
2022-08-19T08:23:23.635Z,98567.84
2022-08-19T08:25:50.920Z,98553.41
2022-08-19T08:28:19.059Z,98570.97
2022-08-19T08:30:49.027Z,98538.16
2022-08-19T08:33:30.087Z,98567.53
2022-08-19T08:36:03.906Z,98543.78
2022-08-19T08:38:38.790Z,98542.81
2022-08-19T08:41:32.138Z,98554.41
2022-08-19T08:43:59.750Z,98563.66
2022-08-19T08:46:31.094Z,98576.50
2022-08-19T08:49:35.386Z,98573.84
2022-08-19T08:52:02.194Z,98561.56
2022-08-19T08:54:36.469Z,98559.94
2022-08-19T08:57:16.899Z,98554.34
2022-08-19T08:59:47.780Z,98557.63
2022-08-19T09:02:14.619Z,98576.22
2022-08-19T09:04:41.421Z,98577.75
2022-08-19T09:07:35.242Z,98574.84
2022-08-19T09:10:26.164Z,98545.75
2022-08-19T09:12:53.189Z,98552.47
2022-08-19T09:15:36.640Z,98548.41
2022-08-19T09:18:07.070Z,98570.59
2022-08-19T09:20:34.258Z,98579.31
2022-08-19T09:23:01.153Z,98572.72
2022-08-19T09:25:29.625Z,98547.34
2022-08-19T09:28:03.037Z,98542.50
2022-08-19T09:30:39.033Z,98535.34
2022-08-19T09:33:06.263Z,98523.50
2022-08-19T09:35:49.504Z,98499.63
2022-08-19T09:38:17.189Z,98495.06
2022-08-19T09:40:44.321Z,98485.31
2022-08-19T09:43:13.221Z,98473.63
2022-08-19T09:45:40.861Z,98480.53
2022-08-19T09:48:07.797Z,98493.16
2022-08-19T09:50:51.874Z,98488.63
2022-08-19T09:53:20.472Z,98489.13
2022-08-19T09:55:47.510Z,98478.28
2022-08-19T09:58:14.267Z,98484.66
2022-08-19T10:00:41.482Z,98490.66
2022-08-19T10:03:08.622Z,98489.22
2022-08-19T10:05:50.699Z,98508.78
2022-08-19T10:08:29.148Z,98497.56
2022-08-19T10:10:58.971Z,98490.72
2022-08-19T10:13:28.840Z,98495.59
2022-08-19T10:15:58.039Z,98476.06
2022-08-19T10:18:25.764Z,98478.31
2022-08-19T10:20:54.682Z,98484.53
2022-08-19T10:23:22.653Z,98480.13
2022-08-19T10:25:50.844Z,98484.09
2022-08-19T10:28:19.262Z,98454.63
2022-08-19T10:30:47.473Z,98456.47
2022-08-19T10:33:15.117Z,98440.88
2022-08-19T10:35:42.543Z,98442.19
2022-08-19T10:38:31.701Z,98433.56
2022-08-19T10:41:07.734Z,98424.88
2022-08-19T10:43:38.000Z,98416.59
2022-08-19T10:46:09.523Z,98419.00
2022-08-19T10:48:43.991Z,98405.00
2022-08-19T10:51:29.968Z,98383.13
2022-08-19T10:53:57.716Z,98373.47
2022-08-19T10:56:43.509Z,98373.63
2022-08-19T10:59:11.197Z,98394.31
2022-08-19T11:01:38.033Z,98366.38
2022-08-19T11:04:09.508Z,98395.34
2022-08-19T11:06:36.666Z,98379.53
2022-08-19T11:09:04.261Z,98390.19
2022-08-19T11:11:31.358Z,98362.91
2022-08-19T11:13:58.929Z,98370.03
2022-08-19T11:16:31.039Z,98369.97
2022-08-19T11:19:00.241Z,98379.25
2022-08-19T11:21:33.441Z,98384.66
2022-08-19T11:24:03.129Z,98389.63
2022-08-19T11:26:31.621Z,98392.78
2022-08-19T11:29:00.201Z,98381.56
2022-08-19T11:31:32.421Z,98379.78
2022-08-19T11:34:04.267Z,98384.19
2022-08-19T11:36:33.526Z,98387.09
2022-08-19T11:39:00.542Z,98382.78
2022-08-19T11:41:27.816Z,98365.00
2022-08-19T11:43:56.475Z,98378.50
2022-08-19T11:46:25.446Z,98354.56
2022-08-19T11:48:52.460Z,98384.97
2022-08-19T11:51:22.999Z,98384.97
2022-08-19T11:53:51.441Z,98391.88
2022-08-19T11:56:19.765Z,98376.78
2022-08-19T11:58:46.677Z,98393.53
2022-08-19T12:01:17.777Z,98385.25
2022-08-19T12:03:46.193Z,98391.31
2022-08-19T12:06:20.109Z,98398.28
2022-08-19T12:08:48.548Z,98404.53
2022-08-19T12:11:15.597Z,98398.22
2022-08-19T12:13:46.024Z,98393.53
2022-08-19T12:16:24.640Z,98371.88
2022-08-19T12:18:52.123Z,98358.56
2022-08-19T12:21:23.910Z,98357.47
2022-08-19T12:23:55.807Z,98359.19
2022-08-19T12:26:23.287Z,98366.34
2022-08-19T12:28:50.110Z,98377.50
2022-08-19T12:31:17.477Z,98391.28
2022-08-19T12:33:44.861Z,98383.13
2022-08-19T12:36:13.477Z,98388.16
2022-08-19T12:38:40.841Z,98372.06
2022-08-19T12:41:11.493Z,98381.88
2022-08-19T12:43:42.960Z,98390.00
2022-08-19T12:46:10.913Z,98386.81
2022-08-19T12:48:38.670Z,98356.72
2022-08-19T12:51:12.075Z,98340.41
2022-08-19T12:53:39.593Z,98329.84
2022-08-19T12:56:08.137Z,98322.16
2022-08-19T12:58:40.002Z,98312.88
2022-08-19T13:01:15.033Z,98350.16
2022-08-19T13:03:48.104Z,98359.31
2022-08-19T13:06:19.598Z,98339.56
2022-08-19T13:08:47.541Z,98302.16
2022-08-19T13:11:18.798Z,98322.91
2022-08-19T13:13:48.503Z,98330.31
2022-08-19T13:16:15.735Z,98297.56
2022-08-19T13:18:53.016Z,98334.09
2022-08-19T13:21:21.224Z,98329.06
2022-08-19T13:23:50.497Z,98334.91
2022-08-19T13:26:17.783Z,98336.78
2022-08-19T13:29:04.289Z,98330.81
2022-08-19T13:31:52.860Z,98325.69
2022-08-19T13:34:26.228Z,98326.84
2022-08-19T13:36:57.792Z,98333.19
2022-08-19T13:39:25.318Z,98349.09
2022-08-19T13:41:52.647Z,98339.25
2022-08-19T13:44:19.967Z,98339.44
2022-08-19T13:46:53.979Z,98337.75
2022-08-19T13:49:21.559Z,98335.66
2022-08-19T13:51:48.512Z,98323.59
2022-08-19T13:54:15.344Z,98302.56
2022-08-19T13:56:44.664Z,98320.13
2022-08-19T13:59:12.107Z,98316.31
2022-08-19T14:01:39.248Z,98315.50
2022-08-19T14:04:06.908Z,98315.06
2022-08-19T14:06:34.269Z,98293.63
2022-08-19T14:09:01.089Z,98292.06
2022-08-19T14:11:28.540Z,98288.31
2022-08-19T14:13:55.611Z,98292.19
2022-08-19T14:16:22.828Z,98280.94
2022-08-19T14:18:49.609Z,98276.50
2022-08-19T14:21:23.641Z,98270.69
2022-08-19T14:23:50.732Z,98271.72
2022-08-19T14:26:18.940Z,98261.75
2022-08-19T14:28:46.476Z,98260.94
2022-08-19T14:31:17.722Z,98232.66
2022-08-19T14:33:44.503Z,98244.47
2022-08-19T14:36:11.300Z,98249.94
2022-08-19T14:38:38.134Z,98233.16
2022-08-19T14:41:18.184Z,98248.81
2022-08-19T14:43:48.623Z,98241.34
2022-08-19T14:46:17.051Z,98253.56
2022-08-19T14:48:44.377Z,98237.38
2022-08-19T14:51:11.393Z,98237.59
2022-08-19T14:53:38.633Z,98238.91
2022-08-19T14:56:17.211Z,98229.25
2022-08-19T14:58:44.871Z,98224.59
2022-08-19T15:01:13.117Z,98231.91
2022-08-19T15:03:41.570Z,98216.22
2022-08-19T15:06:09.340Z,98230.34
2022-08-19T15:08:42.088Z,98219.84
2022-08-19T15:11:11.613Z,98219.84
2022-08-19T15:13:38.487Z,98215.44
2022-08-19T15:16:05.614Z,98219.09
2022-08-19T15:18:33.648Z,98216.19
2022-08-19T15:21:00.405Z,98210.44
2022-08-19T15:23:27.602Z,98207.03
2022-08-19T15:25:56.480Z,98204.03
2022-08-19T15:28:25.586Z,98194.34
2022-08-19T15:30:53.168Z,98183.19
2022-08-19T15:33:21.310Z,98184.63
2022-08-19T15:35:50.007Z,98176.28
2022-08-19T15:38:20.800Z,98171.63
2022-08-19T15:40:48.899Z,98150.28
2022-08-19T15:43:17.330Z,98199.66
2022-08-19T15:45:49.422Z,98195.34
2022-08-19T15:48:16.451Z,98197.84
2022-08-19T15:50:43.291Z,98196.28
2022-08-19T15:53:11.069Z,98200.41
2022-08-19T15:55:44.332Z,98197.13
2022-08-19T15:58:32.091Z,98195.63
2022-08-19T16:01:20.842Z,98189.28
2022-08-19T16:04:11.142Z,98188.88
2022-08-19T16:06:46.209Z,98197.03
2022-08-19T16:09:15.801Z,98205.63
2022-08-19T16:11:45.841Z,98204.56
2022-08-19T16:14:15.177Z,98216.94
2022-08-19T16:16:42.191Z,98237.16
2022-08-19T16:19:11.978Z,98238.84
2022-08-19T16:21:41.640Z,98243.53
2022-08-19T16:24:13.176Z,98274.63
2022-08-19T16:26:41.838Z,98285.84
2022-08-19T16:29:13.103Z,98285.88
2022-08-19T16:31:42.462Z,98315.78
2022-08-19T16:34:09.497Z,98331.19
2022-08-19T16:36:36.334Z,98315.69
2022-08-19T16:39:03.841Z,98355.78
2022-08-19T16:41:30.595Z,98374.84
2022-08-19T16:43:57.457Z,98457.91
2022-08-19T16:46:25.298Z,98444.88
2022-08-19T16:48:54.701Z,98455.47
2022-08-19T16:51:22.933Z,98418.66
2022-08-19T16:53:52.145Z,98460.53
2022-08-19T16:56:19.875Z,98459.94
2022-08-19T16:58:46.756Z,98439.41
2022-08-19T17:01:14.636Z,98463.84
2022-08-19T17:03:41.716Z,98446.94
2022-08-19T17:06:18.976Z,98454.44
2022-08-19T17:08:50.457Z,98449.44
2022-08-19T17:11:19.370Z,98441.09
2022-08-19T17:13:47.642Z,98443.31
2022-08-19T17:16:16.352Z,98444.97
2022-08-19T17:18:43.384Z,98443.25
2022-08-19T17:21:10.376Z,98440.91
2022-08-19T17:23:43.495Z,98431.47
2022-08-19T17:26:18.457Z,98435.50
2022-08-19T17:28:50.517Z,98426.50
2022-08-19T17:31:19.279Z,98439.97
2022-08-19T17:33:48.447Z,98422.31
2022-08-19T17:36:19.359Z,98416.16
2022-08-19T17:38:46.442Z,98406.41
2022-08-19T17:41:13.425Z,98404.38
2022-08-19T17:43:43.588Z,98400.41
2022-08-19T17:46:17.732Z,98401.13
2022-08-19T17:48:51.767Z,98417.69
2022-08-19T17:51:25.890Z,98435.47
2022-08-19T17:53:54.240Z,98418.22
2022-08-19T17:56:22.000Z,98446.56
2022-08-19T17:58:57.645Z,98442.25
2022-08-19T18:01:31.444Z,98441.34
2022-08-19T18:04:14.941Z,98453.94
2022-08-19T18:06:41.908Z,98465.88
2022-08-19T18:09:20.818Z,98472.44
2022-08-19T18:11:52.682Z,98477.81
2022-08-19T18:14:28.135Z,98475.66
2022-08-19T18:17:00.280Z,98497.81
2022-08-19T18:19:40.771Z,98500.56
2022-08-19T18:22:09.179Z,98506.63
2022-08-19T18:24:39.282Z,98515.75
2022-08-19T18:27:07.096Z,98509.44
2022-08-19T18:29:37.492Z,98504.91
2022-08-19T18:32:04.625Z,98504.91
2022-08-19T18:34:31.467Z,98515.97
2022-08-19T18:36:58.325Z,98521.69
2022-08-19T18:39:44.372Z,98516.81
2022-08-19T18:42:34.832Z,98530.09
2022-08-19T18:45:20.247Z,98535.19
2022-08-19T18:48:05.827Z,98541.53
2022-08-19T18:50:34.777Z,98536.84
2022-08-19T18:53:01.980Z,98540.78
2022-08-19T18:55:29.364Z,98562.97
2022-08-19T18:57:56.735Z,98571.50
2022-08-19T19:00:23.707Z,98569.53
2022-08-19T19:02:50.599Z,98563.41
2022-08-19T19:05:17.686Z,98565.91
2022-08-19T19:07:44.628Z,98569.63
2022-08-19T19:10:11.497Z,98572.78
2022-08-19T19:12:46.893Z,98560.88
2022-08-19T19:15:13.941Z,98576.34
2022-08-19T19:17:42.119Z,98569.91
2022-08-19T19:20:10.056Z,98583.25
2022-08-19T19:22:37.125Z,98566.31
2022-08-19T19:25:04.379Z,98581.19
2022-08-19T19:27:31.277Z,98580.88
2022-08-19T19:29:58.129Z,98573.28
2022-08-19T19:32:35.810Z,98579.66
2022-08-19T19:35:06.907Z,98571.53
2022-08-19T19:37:33.949Z,98586.47
2022-08-19T19:40:01.109Z,98590.03
2022-08-19T19:42:27.969Z,98618.06
2022-08-19T19:44:55.975Z,98623.38
2022-08-19T19:47:24.747Z,98634.06
2022-08-19T19:52:41.478Z,98657.22
2022-08-19T19:55:09.776Z,98671.06
2022-08-19T19:57:37.709Z,98666.00
2022-08-19T20:00:06.267Z,98652.94
2022-08-19T20:02:33.059Z,98666.28
2022-08-19T20:04:59.930Z,98659.63
2022-08-19T20:07:46.667Z,98678.97
2022-08-19T20:10:14.139Z,98694.84
2022-08-19T20:12:40.917Z,98670.41
2022-08-19T20:15:08.188Z,98694.66
2022-08-19T20:17:42.549Z,98695.59
2022-08-19T20:20:11.540Z,98703.06
2022-08-19T20:22:43.307Z,98725.78
2022-08-19T20:25:11.872Z,98748.38
2022-08-19T20:27:40.306Z,98751.97
2022-08-19T20:30:13.066Z,98762.03
2022-08-19T20:32:47.142Z,98730.72
2022-08-19T20:35:16.060Z,98774.63
2022-08-19T20:37:42.928Z,98774.00
2022-08-19T20:40:11.321Z,98775.09
2022-08-19T20:42:40.771Z,98763.16
2022-08-19T20:45:18.231Z,98771.47
2022-08-19T20:47:58.054Z,98762.03
2022-08-19T20:50:26.410Z,98774.66
2022-08-19T20:52:57.292Z,98747.13
2022-08-19T20:55:24.210Z,98754.91
2022-08-19T20:57:51.748Z,98771.25
2022-08-19T21:00:19.320Z,98767.50
2022-08-19T21:02:47.083Z,98778.41
2022-08-19T21:05:15.168Z,98777.16
2022-08-19T21:07:42.110Z,98784.06
2022-08-19T21:10:09.007Z,98779.97
2022-08-19T21:12:36.188Z,98790.31
2022-08-19T21:15:03.129Z,98783.25
2022-08-19T21:17:29.981Z,98793.13
2022-08-19T21:19:56.741Z,98789.97
2022-08-19T21:22:23.747Z,98783.47
2022-08-19T21:24:50.528Z,98773.19
2022-08-19T21:27:17.458Z,98770.94
2022-08-19T21:29:44.337Z,98774.72
2022-08-19T21:32:13.975Z,98774.72
2022-08-19T21:34:43.833Z,98768.69
2022-08-19T21:37:24.762Z,98768.06
2022-08-19T21:39:52.479Z,98788.94
2022-08-19T21:42:19.472Z,98779.13
2022-08-19T21:44:46.238Z,98754.66
2022-08-19T21:47:13.345Z,98753.84
2022-08-19T21:49:40.206Z,98756.94
2022-08-19T21:52:08.339Z,98750.91
2022-08-19T21:54:38.136Z,98752.41
2022-08-19T21:57:10.077Z,98751.34
2022-08-19T21:59:41.211Z,98762.47
2022-08-19T22:02:21.911Z,98777.28
2022-08-19T22:04:53.333Z,98770.38
2022-08-19T22:07:21.689Z,98762.03
2022-08-19T22:09:50.651Z,98778.34
2022-08-19T22:12:27.362Z,98773.19
2022-08-19T22:14:55.281Z,98774.25
2022-08-19T22:17:23.105Z,98770.47
2022-08-19T22:19:52.581Z,98767.97
2022-08-19T22:22:24.548Z,98761.50
2022-08-19T22:24:52.902Z,98761.72
2022-08-19T22:27:20.007Z,98760.44
2022-08-19T22:29:46.821Z,98732.63
2022-08-19T22:32:26.201Z,98739.94
2022-08-19T22:34:56.818Z,98738.88
2022-08-19T22:37:23.649Z,98739.50
2022-08-19T22:39:50.554Z,98734.44
2022-08-19T22:42:21.512Z,98757.69
2022-08-19T22:44:49.071Z,98758.72
2022-08-19T22:47:16.679Z,98750.56
2022-08-19T22:49:44.071Z,98725.91
2022-08-19T22:52:20.328Z,98732.16
2022-08-19T22:54:53.622Z,98720.63
2022-08-19T22:57:21.983Z,98740.53
2022-08-19T22:59:51.290Z,98748.28
2022-08-19T23:03:34.476Z,98748.53
2022-08-19T23:06:01.460Z,98746.00
2022-08-19T23:08:28.353Z,98747.09
2022-08-19T23:10:55.157Z,98731.00
2022-08-19T23:13:22.210Z,98736.88
2022-08-19T23:15:49.360Z,98737.25
2022-08-19T23:18:16.168Z,98748.38
2022-08-19T23:20:44.906Z,98738.97
2022-08-19T23:23:14.798Z,98745.81
2022-08-19T23:25:41.704Z,98730.81
2022-08-19T23:28:27.344Z,98721.59
2022-08-19T23:30:54.235Z,98724.31
2022-08-19T23:33:46.619Z,98740.09
2022-08-19T23:36:17.089Z,98732.59
2022-08-19T23:38:46.177Z,98743.50
2022-08-19T23:41:14.637Z,98755.38
2022-08-19T23:46:10.610Z,98753.09
2022-08-19T23:48:39.927Z,98741.56
2022-08-19T23:51:09.865Z,98745.13
2022-08-19T23:53:41.583Z,98740.72
2022-08-19T23:56:10.769Z,98739.28
2022-08-19T23:58:38.362Z,98729.63
